createdAt,value
2022-12-03T00:01:14.039Z,16.23
2022-12-03T00:03:40.733Z,13.40
2022-12-03T00:06:07.693Z,17.05
2022-12-03T00:08:34.995Z,13.77
2022-12-03T00:11:01.509Z,17.20
2022-12-03T00:13:28.031Z,16.25
2022-12-03T00:15:55.185Z,17.73
2022-12-03T00:18:21.896Z,20.63
2022-12-03T00:20:48.523Z,15.00
2022-12-03T00:23:15.038Z,12.68
2022-12-03T00:25:41.560Z,14.07
2022-12-03T00:28:08.067Z,12.13
2022-12-03T00:30:34.581Z,16.45
2022-12-03T00:33:01.194Z,15.35
2022-12-03T00:35:27.692Z,15.90
2022-12-03T00:37:54.924Z,21.65
2022-12-03T00:40:21.629Z,14.13
2022-12-03T00:42:48.134Z,13.40
2022-12-03T00:45:14.902Z,20.27
2022-12-03T00:47:41.434Z,13.90
2022-12-03T00:50:08.562Z,13.63
2022-12-03T00:52:35.145Z,17.83
2022-12-03T00:55:01.831Z,13.10
2022-12-03T00:57:28.382Z,12.55
2022-12-03T00:59:54.906Z,12.93
2022-12-03T01:02:21.755Z,13.80
2022-12-03T01:04:48.407Z,15.40
2022-12-03T01:07:14.994Z,16.88
2022-12-03T01:09:41.502Z,16.02
2022-12-03T01:12:08.194Z,16.67
2022-12-03T01:14:34.758Z,14.27
2022-12-03T01:17:01.272Z,13.10
2022-12-03T01:19:27.903Z,16.73
2022-12-03T01:21:55.702Z,12.27
2022-12-03T01:24:22.331Z,18.58
2022-12-03T01:26:48.812Z,15.07
2022-12-03T01:29:15.709Z,16.93
2022-12-03T01:32:01.013Z,14.60
2022-12-03T01:34:27.861Z,13.88
2022-12-03T01:36:54.955Z,17.33
2022-12-03T01:39:21.505Z,18.60
2022-12-03T01:41:49.933Z,18.60
2022-12-03T01:44:33.726Z,19.05
2022-12-03T01:47:04.235Z,15.88
2022-12-03T01:49:56.478Z,18.48
2022-12-03T01:52:27.208Z,17.00
2022-12-03T01:54:57.019Z,16.80
2022-12-03T01:57:27.655Z,18.58
2022-12-03T01:59:57.228Z,13.75
2022-12-03T02:02:29.668Z,15.88
2022-12-03T02:04:57.094Z,19.17
2022-12-03T02:07:29.767Z,14.80
2022-12-03T02:09:58.366Z,13.40
2022-12-03T02:12:34.269Z,18.80
2022-12-03T02:15:02.121Z,15.70
2022-12-03T02:17:29.018Z,15.40
2022-12-03T02:19:56.341Z,19.43
2022-12-03T02:22:43.510Z,12.77
2022-12-03T02:25:19.662Z,11.25
2022-12-03T02:27:47.151Z,15.32
2022-12-03T02:30:18.270Z,15.32
2022-12-03T02:32:45.134Z,18.30
2022-12-03T02:35:20.949Z,14.60
2022-12-03T02:37:50.831Z,15.20
2022-12-03T02:40:21.764Z,14.40
2022-12-03T02:42:50.719Z,16.88
2022-12-03T02:45:26.971Z,14.77
2022-12-03T02:48:03.836Z,18.58
2022-12-03T02:50:34.057Z,14.25
2022-12-03T02:53:05.667Z,13.68
2022-12-03T02:55:37.096Z,9.93
2022-12-03T02:58:05.007Z,15.20
2022-12-03T03:00:31.722Z,13.98
2022-12-03T03:02:58.749Z,16.92
2022-12-03T03:05:25.534Z,15.50
2022-12-03T03:07:52.190Z,14.73
2022-12-03T03:10:22.984Z,15.47
2022-12-03T03:12:51.240Z,15.95
2022-12-03T03:15:18.045Z,16.55
2022-12-03T03:17:44.679Z,15.70
2022-12-03T03:20:11.969Z,13.80
2022-12-03T03:22:40.654Z,16.77
2022-12-03T03:25:10.915Z,12.32
2022-12-03T03:27:38.944Z,12.55
2022-12-03T03:30:06.786Z,12.68
2022-12-03T03:32:33.915Z,15.07
2022-12-03T03:35:00.890Z,15.40
2022-12-03T03:37:28.494Z,15.18
2022-12-03T03:39:55.619Z,12.80
2022-12-03T03:42:22.896Z,12.90
2022-12-03T03:44:49.775Z,14.35
2022-12-03T03:47:18.003Z,11.93
2022-12-03T03:49:44.896Z,13.77
2022-12-03T03:52:11.911Z,11.70
2022-12-03T03:54:39.482Z,10.38
2022-12-03T03:57:06.135Z,14.07
2022-12-03T03:59:32.775Z,14.93
2022-12-03T04:01:59.347Z,13.55
2022-12-03T04:04:27.427Z,14.10
2022-12-03T04:06:54.012Z,15.00
2022-12-03T04:09:20.514Z,9.18
2022-12-03T04:12:05.310Z,12.37
2022-12-03T04:14:31.812Z,12.63
2022-12-03T04:16:58.479Z,15.02
2022-12-03T04:19:25.060Z,11.73
2022-12-03T04:22:10.121Z,13.18
2022-12-03T04:24:36.779Z,14.80
2022-12-03T04:27:21.667Z,14.35
2022-12-03T04:29:48.296Z,13.18
2022-12-03T04:32:33.500Z,15.40
2022-12-03T04:35:18.920Z,14.35
2022-12-03T04:37:45.478Z,14.20
2022-12-03T04:40:31.019Z,14.05
2022-12-03T04:42:57.619Z,12.10
2022-12-03T04:45:24.253Z,13.25
2022-12-03T04:47:50.810Z,13.93
2022-12-03T04:50:17.307Z,14.53
2022-12-03T04:52:43.919Z,12.48
2022-12-03T04:55:10.652Z,11.30
2022-12-03T04:57:37.150Z,13.75
2022-12-03T05:00:05.478Z,12.50
2022-12-03T05:02:32.033Z,17.53
2022-12-03T05:04:58.623Z,16.60
2022-12-03T05:07:25.196Z,26.95
2022-12-03T05:09:51.848Z,16.63
2022-12-03T05:12:18.346Z,16.10
2022-12-03T05:14:44.829Z,13.00
2022-12-03T05:17:11.498Z,12.10
2022-12-03T05:19:56.520Z,13.13
2022-12-03T05:22:23.023Z,15.60
2022-12-03T05:24:49.540Z,15.80
2022-12-03T05:27:20.285Z,15.87
2022-12-03T05:29:50.141Z,14.10
2022-12-03T05:32:16.724Z,15.90
2022-12-03T05:34:43.229Z,17.65
2022-12-03T05:37:09.819Z,16.98
2022-12-03T05:39:36.514Z,17.57
2022-12-03T05:42:22.137Z,17.70
2022-12-03T05:44:48.630Z,18.90
2022-12-03T05:47:15.139Z,17.95
2022-12-03T05:49:41.751Z,23.15
2022-12-03T05:52:08.394Z,18.77
2022-12-03T05:54:34.936Z,22.65
2022-12-03T05:57:01.445Z,18.88
2022-12-03T05:59:28.064Z,18.60
2022-12-03T06:01:54.672Z,22.02
2022-12-03T06:04:21.187Z,24.37
2022-12-03T06:06:47.715Z,17.83
2022-12-03T06:09:14.221Z,17.35
2022-12-03T06:11:41.340Z,16.77
2022-12-03T06:14:08.207Z,17.00
2022-12-03T06:16:34.799Z,19.07
2022-12-03T06:19:01.381Z,18.70
2022-12-03T06:21:27.869Z,15.35
2022-12-03T06:23:54.364Z,20.80
2022-12-03T06:26:20.893Z,15.90
2022-12-03T06:28:49.134Z,15.13
2022-12-03T06:31:15.708Z,15.02
2022-12-03T06:33:42.347Z,13.80
2022-12-03T06:36:09.212Z,13.55
2022-12-03T06:38:35.721Z,15.40
2022-12-03T06:41:02.224Z,13.00
2022-12-03T06:43:28.849Z,18.30
2022-12-03T06:45:55.335Z,18.80
2022-12-03T06:48:22.033Z,14.63
2022-12-03T06:50:48.560Z,18.33
2022-12-03T06:53:15.061Z,19.23
2022-12-03T06:55:41.807Z,21.02
2022-12-03T06:58:08.315Z,17.38
2022-12-03T07:00:34.843Z,17.52
2022-12-03T07:03:01.445Z,13.20
2022-12-03T07:05:28.127Z,20.47
2022-12-03T07:07:55.505Z,14.30
2022-12-03T07:10:22.499Z,16.38
2022-12-03T07:12:49.024Z,17.10
2022-12-03T07:15:15.842Z,16.27
2022-12-03T07:17:42.352Z,14.47
2022-12-03T07:20:10.095Z,14.77
2022-12-03T07:22:36.648Z,13.88
2022-12-03T07:25:03.381Z,15.00
2022-12-03T07:27:29.866Z,13.40
2022-12-03T07:29:56.400Z,12.43
2022-12-03T07:32:23.214Z,11.90
2022-12-03T07:34:49.692Z,14.93
2022-12-03T07:37:21.411Z,14.18
2022-12-03T07:39:49.643Z,14.30
2022-12-03T07:42:16.162Z,16.30
2022-12-03T07:44:42.676Z,16.08
2022-12-03T07:47:09.233Z,16.92
2022-12-03T07:49:36.125Z,16.15
2022-12-03T07:52:02.650Z,13.55
2022-12-03T07:54:29.164Z,14.40
2022-12-03T07:57:01.155Z,12.10
2022-12-03T07:59:28.876Z,14.52
2022-12-03T08:01:55.488Z,15.93
2022-12-03T08:04:22.193Z,16.08
2022-12-03T08:06:49.026Z,14.03
2022-12-03T08:09:16.362Z,14.50
2022-12-03T08:11:45.196Z,10.73
2022-12-03T08:14:13.636Z,13.38
2022-12-03T08:16:41.915Z,11.32
2022-12-03T08:19:13.466Z,14.53
2022-12-03T08:21:41.051Z,13.85
2022-12-03T08:24:16.553Z,11.82
2022-12-03T08:26:45.127Z,15.05
2022-12-03T08:29:17.982Z,12.65
2022-12-03T08:31:48.765Z,9.93
2022-12-03T08:34:17.774Z,15.65
2022-12-03T08:36:45.195Z,13.80
2022-12-03T08:39:30.494Z,12.02
2022-12-03T08:42:27.289Z,14.38
2022-12-03T08:44:55.515Z,10.93
2022-12-03T08:47:24.401Z,11.85
2022-12-03T08:50:17.980Z,12.75
2022-12-03T08:52:44.560Z,11.55
2022-12-03T08:55:33.910Z,10.93
2022-12-03T08:58:00.538Z,11.27
2022-12-03T09:00:27.051Z,11.82
2022-12-03T09:02:59.493Z,10.80
2022-12-03T09:05:30.057Z,12.20
2022-12-03T09:07:56.664Z,12.10
2022-12-03T09:10:23.391Z,12.27
2022-12-03T09:12:49.967Z,11.85
2022-12-03T09:15:16.529Z,9.60
2022-12-03T09:17:43.039Z,9.27
2022-12-03T09:20:10.001Z,9.63
2022-12-03T09:22:36.775Z,14.53
2022-12-03T09:25:03.713Z,10.13
2022-12-03T09:27:30.227Z,7.97
2022-12-03T09:29:56.851Z,9.65
2022-12-03T09:32:24.612Z,8.98
2022-12-03T09:34:51.792Z,9.53
2022-12-03T09:37:18.677Z,12.63
2022-12-03T09:39:45.192Z,8.80
2022-12-03T09:42:12.023Z,8.10
2022-12-03T09:44:38.972Z,8.82
2022-12-03T09:47:06.788Z,11.80
2022-12-03T09:49:36.989Z,10.85
2022-12-03T09:52:05.731Z,10.10
2022-12-03T09:54:33.173Z,10.32
2022-12-03T09:57:02.676Z,11.07
2022-12-03T09:59:34.709Z,10.80
2022-12-03T10:02:02.738Z,13.23
2022-12-03T10:04:29.980Z,8.13
2022-12-03T10:06:58.272Z,11.43
2022-12-03T10:09:28.231Z,8.63
2022-12-03T10:11:57.211Z,10.43
2022-12-03T10:14:24.012Z,9.30
2022-12-03T10:16:51.003Z,7.35
2022-12-03T10:19:27.811Z,11.38
2022-12-03T10:21:55.842Z,7.70
2022-12-03T10:24:22.384Z,10.13
2022-12-03T10:26:51.244Z,13.68
2022-12-03T10:29:20.594Z,7.35
2022-12-03T10:31:56.203Z,10.70
2022-12-03T10:34:41.060Z,11.95
2022-12-03T10:37:12.273Z,10.37
2022-12-03T10:39:58.960Z,6.40
2022-12-03T10:42:28.648Z,10.70
2022-12-03T10:45:18.278Z,10.15
2022-12-03T10:48:12.190Z,11.05
2022-12-03T10:50:53.574Z,8.67
2022-12-03T10:53:22.761Z,9.30
2022-12-03T10:55:51.751Z,9.77
2022-12-03T10:58:18.209Z,8.70
2022-12-03T11:00:45.211Z,9.70
2022-12-03T11:03:29.562Z,10.63
2022-12-03T11:05:57.855Z,6.95
2022-12-03T11:08:27.680Z,7.38
2022-12-03T11:11:03.961Z,10.45
2022-12-03T11:13:33.442Z,13.60
2022-12-03T11:16:02.423Z,8.53
2022-12-03T11:18:37.695Z,8.57
2022-12-03T11:21:14.099Z,11.48
2022-12-03T11:23:46.610Z,9.90
2022-12-03T11:26:19.878Z,9.82
2022-12-03T11:28:46.670Z,7.73
2022-12-03T11:31:47.649Z,12.30
2022-12-03T11:34:20.632Z,9.15
2022-12-03T11:37:12.144Z,8.13
2022-12-03T11:39:44.754Z,7.95
2022-12-03T11:42:26.523Z,12.50
2022-12-03T11:45:05.490Z,7.38
2022-12-03T11:47:46.942Z,8.23
2022-12-03T11:50:23.375Z,10.73
2022-12-03T11:52:55.491Z,10.07
2022-12-03T11:55:37.369Z,11.17
2022-12-03T11:58:23.571Z,11.25
2022-12-03T12:00:52.066Z,7.68
2022-12-03T12:03:33.488Z,7.30
2022-12-03T12:06:00.265Z,11.05
2022-12-03T12:08:26.781Z,8.90
2022-12-03T12:10:53.308Z,9.45
2022-12-03T12:13:49.511Z,12.93
2022-12-03T12:16:42.889Z,8.15
2022-12-03T12:19:36.501Z,13.07
2022-12-03T12:22:14.272Z,9.40
2022-12-03T12:24:41.328Z,8.65
2022-12-03T12:27:09.133Z,8.55
2022-12-03T12:29:37.496Z,11.65
2022-12-03T12:32:10.696Z,12.63
2022-12-03T12:34:38.361Z,10.17
2022-12-03T12:37:09.924Z,9.85
2022-12-03T12:39:36.712Z,12.52
2022-12-03T12:42:24.383Z,10.27
2022-12-03T12:44:52.212Z,10.02
2022-12-03T12:47:18.809Z,11.83
2022-12-03T12:49:51.489Z,12.07
2022-12-03T12:52:18.325Z,10.05
2022-12-03T12:54:44.896Z,12.55
2022-12-03T12:57:20.583Z,11.48
2022-12-03T12:59:47.311Z,11.17
2022-12-03T13:02:37.105Z,13.50
2022-12-03T13:05:04.430Z,9.88
2022-12-03T13:07:31.541Z,9.40
2022-12-03T13:10:00.209Z,10.02
2022-12-03T13:12:27.083Z,11.10
2022-12-03T13:14:58.652Z,14.27
2022-12-03T13:17:26.074Z,12.32
2022-12-03T13:20:03.631Z,11.68
2022-12-03T13:22:31.873Z,13.77
2022-12-03T13:25:38.320Z,12.83
2022-12-03T13:28:08.072Z,12.23
2022-12-03T13:30:34.578Z,10.95
2022-12-03T13:33:29.328Z,13.32
2022-12-03T13:35:56.465Z,15.07
2022-12-03T13:38:25.871Z,15.97
2022-12-03T13:41:01.409Z,8.98
2022-12-03T13:43:32.753Z,12.63
2022-12-03T13:46:00.142Z,13.80
2022-12-03T13:48:34.133Z,11.57
2022-12-03T13:51:11.599Z,11.90
2022-12-03T13:53:40.587Z,18.55
2022-12-03T13:56:28.569Z,11.85
2022-12-03T13:58:57.337Z,13.20
2022-12-03T14:01:23.928Z,12.10
2022-12-03T14:03:50.634Z,14.50
2022-12-03T14:06:17.155Z,12.98
2022-12-03T14:08:43.955Z,13.85
2022-12-03T14:11:30.680Z,15.45
2022-12-03T14:13:57.190Z,13.15
2022-12-03T14:16:23.741Z,15.87
2022-12-03T14:18:50.361Z,14.77
2022-12-03T14:21:16.862Z,13.75
2022-12-03T14:23:43.845Z,14.07
2022-12-03T14:26:10.356Z,12.98
2022-12-03T14:28:36.942Z,13.93
2022-12-03T14:31:03.448Z,12.63
2022-12-03T14:33:29.948Z,12.93
2022-12-03T14:35:57.451Z,15.43
2022-12-03T14:38:24.005Z,15.02
2022-12-03T14:40:50.532Z,14.17
2022-12-03T14:43:17.026Z,15.57
2022-12-03T14:45:43.699Z,15.32
2022-12-03T14:48:10.176Z,15.65
2022-12-03T14:50:36.768Z,17.52
2022-12-03T14:53:03.346Z,14.47
2022-12-03T14:55:29.856Z,14.25
2022-12-03T14:57:56.389Z,14.23
2022-12-03T15:00:22.887Z,14.38
2022-12-03T15:02:49.464Z,16.65
2022-12-03T15:05:15.996Z,15.60
2022-12-03T15:07:42.848Z,13.95
2022-12-03T15:10:09.854Z,16.00
2022-12-03T15:12:36.345Z,19.55
2022-12-03T15:15:02.990Z,26.90
2022-12-03T15:17:31.957Z,15.63
2022-12-03T15:19:58.823Z,13.57
2022-12-03T15:22:25.350Z,15.15
2022-12-03T15:24:51.843Z,14.32
2022-12-03T15:27:18.401Z,15.20
2022-12-03T15:29:44.889Z,15.30
2022-12-03T15:32:11.392Z,19.40
2022-12-03T15:34:37.963Z,14.65
2022-12-03T15:37:04.488Z,14.65
2022-12-03T15:39:32.940Z,16.83
2022-12-03T15:41:59.471Z,16.43
2022-12-03T15:44:25.978Z,15.07
2022-12-03T15:46:52.483Z,16.70
2022-12-03T15:49:20.126Z,12.57
2022-12-03T15:51:46.660Z,12.25
2022-12-03T15:54:13.253Z,16.80
2022-12-03T15:56:39.784Z,17.63
2022-12-03T15:59:06.296Z,14.40
2022-12-03T16:01:33.028Z,14.63
2022-12-03T16:03:59.648Z,17.27
2022-12-03T16:06:26.160Z,17.57
2022-12-03T16:08:52.943Z,13.52
2022-12-03T16:11:19.438Z,15.38
2022-12-03T16:13:45.979Z,15.85
2022-12-03T16:16:12.651Z,16.02
2022-12-03T16:18:39.235Z,17.23
2022-12-03T16:21:05.796Z,17.13
2022-12-03T16:23:32.289Z,17.00
2022-12-03T16:25:58.786Z,17.50
2022-12-03T16:28:25.313Z,16.73
2022-12-03T16:30:51.985Z,14.33
2022-12-03T16:33:22.641Z,12.43
2022-12-03T16:35:53.695Z,14.13
2022-12-03T16:38:20.199Z,16.88
2022-12-03T16:40:46.734Z,18.15
2022-12-03T16:43:13.399Z,21.07
2022-12-03T16:45:42.486Z,15.23
2022-12-03T16:48:09.080Z,19.88
2022-12-03T16:50:37.631Z,21.35
2022-12-03T16:53:04.286Z,18.33
2022-12-03T16:55:30.919Z,16.00
2022-12-03T16:57:57.459Z,23.13
2022-12-03T17:00:25.864Z,22.73
2022-12-03T17:02:52.444Z,16.48
2022-12-03T17:05:19.038Z,24.00
2022-12-03T17:07:45.663Z,16.30
2022-12-03T17:10:12.321Z,17.77
2022-12-03T17:13:07.538Z,19.52
2022-12-03T17:15:25.387Z,16.75
2022-12-03T17:17:51.961Z,16.75
2022-12-03T17:20:18.607Z,19.53
2022-12-03T17:22:45.098Z,20.33
2022-12-03T17:25:11.762Z,20.33
2022-12-03T17:27:43.474Z,20.20
2022-12-03T17:30:12.647Z,19.65
2022-12-03T17:32:39.679Z,18.50
2022-12-03T17:35:06.677Z,21.35
2022-12-03T17:37:33.699Z,18.92
2022-12-03T17:40:00.421Z,19.00
2022-12-03T17:42:26.977Z,17.25
2022-12-03T17:44:53.526Z,16.90
2022-12-03T17:47:20.040Z,15.10
2022-12-03T17:49:46.613Z,24.88
2022-12-03T17:52:13.141Z,21.90
2022-12-03T17:55:08.247Z,16.65
2022-12-03T17:57:41.381Z,18.40
2022-12-03T18:00:08.922Z,21.60
2022-12-03T18:02:35.425Z,20.30
2022-12-03T18:05:02.085Z,22.70
2022-12-03T18:07:28.701Z,22.00
2022-12-03T18:09:55.595Z,24.43
2022-12-03T18:12:22.262Z,23.95
2022-12-03T18:14:48.764Z,23.13
2022-12-03T18:17:15.291Z,25.45
2022-12-03T18:19:41.765Z,23.38
2022-12-03T18:22:08.443Z,22.67
2022-12-03T18:24:35.152Z,19.23
2022-12-03T18:27:01.673Z,21.80
2022-12-03T18:29:28.190Z,19.60
2022-12-03T18:31:54.855Z,24.38
2022-12-03T18:34:21.461Z,25.00
2022-12-03T18:36:49.406Z,24.70
2022-12-03T18:39:36.692Z,21.88
2022-12-03T18:42:17.311Z,22.95
2022-12-03T18:44:49.435Z,22.05
2022-12-03T18:47:19.524Z,19.47
2022-12-03T18:49:46.243Z,20.65
2022-12-03T18:52:15.148Z,21.77
2022-12-03T18:54:42.150Z,25.00
2022-12-03T18:57:09.017Z,23.33
2022-12-03T18:59:35.540Z,19.33
2022-12-03T19:02:02.226Z,21.38
2022-12-03T19:04:28.771Z,20.27
2022-12-03T19:06:55.419Z,26.73
2022-12-03T19:09:22.006Z,23.33
2022-12-03T19:11:48.638Z,24.80
2022-12-03T19:14:15.399Z,20.80
2022-12-03T19:16:42.445Z,19.25
2022-12-03T19:19:09.697Z,20.98
2022-12-03T19:21:36.910Z,23.85
2022-12-03T19:24:23.703Z,25.90
2022-12-03T19:26:54.510Z,21.88
2022-12-03T19:29:24.111Z,24.33
2022-12-03T19:31:51.851Z,21.55
2022-12-03T19:34:18.564Z,20.65
2022-12-03T19:36:45.186Z,25.97
2022-12-03T19:39:11.796Z,23.48
2022-12-03T19:41:39.287Z,27.80
2022-12-03T19:44:10.698Z,23.02
2022-12-03T19:46:37.542Z,22.05
2022-12-03T19:49:04.897Z,20.00
2022-12-03T19:51:35.154Z,21.25
2022-12-03T19:54:04.422Z,25.15
2022-12-03T19:56:31.328Z,24.50
2022-12-03T19:58:58.682Z,24.30
2022-12-03T20:01:28.610Z,26.40
2022-12-03T20:03:56.997Z,27.95
2022-12-03T20:06:26.879Z,23.88
2022-12-03T20:08:58.507Z,27.80
2022-12-03T20:11:30.354Z,24.15
2022-12-03T20:13:59.520Z,24.50
2022-12-03T20:16:28.005Z,21.30
2022-12-03T20:19:03.243Z,27.17
2022-12-03T20:21:31.889Z,20.83
2022-12-03T20:23:58.771Z,23.98
2022-12-03T20:26:25.395Z,20.90
2022-12-03T20:28:54.959Z,21.42
2022-12-03T20:31:23.682Z,21.92
2022-12-03T20:33:52.435Z,27.05
2022-12-03T20:36:23.473Z,22.13
2022-12-03T20:38:55.104Z,26.80
2022-12-03T20:41:22.061Z,22.60
2022-12-03T20:43:48.961Z,24.15
2022-12-03T20:46:25.615Z,28.95
2022-12-03T20:48:54.094Z,23.15
2022-12-03T20:51:23.237Z,24.67
2022-12-03T20:53:50.036Z,25.23
2022-12-03T20:56:20.320Z,17.83
2022-12-03T20:58:50.552Z,20.35
2022-12-03T21:01:19.982Z,19.33
2022-12-03T21:03:47.414Z,23.17
2022-12-03T21:06:14.909Z,23.77
2022-12-03T21:08:42.791Z,20.33
2022-12-03T21:11:17.107Z,23.80
2022-12-03T21:13:44.341Z,24.30
2022-12-03T21:16:39.739Z,24.43
2022-12-03T21:19:11.396Z,25.98
2022-12-03T21:21:37.921Z,24.27
2022-12-03T21:24:04.683Z,23.05
2022-12-03T21:26:31.366Z,20.60
2022-12-03T21:28:57.872Z,23.13
2022-12-03T21:31:26.626Z,25.38
2022-12-03T21:33:54.653Z,22.70
2022-12-03T21:36:21.912Z,24.55
2022-12-03T21:38:48.699Z,23.92
2022-12-03T21:41:16.029Z,23.17
2022-12-03T21:43:43.570Z,25.38
2022-12-03T21:47:10.838Z,22.27
2022-12-03T21:49:01.711Z,22.92
2022-12-03T21:51:28.244Z,24.08
2022-12-03T21:53:54.866Z,24.40
2022-12-03T21:56:21.547Z,20.80
2022-12-03T21:58:48.070Z,21.13
2022-12-03T22:01:19.485Z,24.73
2022-12-03T22:03:46.674Z,22.33
2022-12-03T22:06:14.015Z,24.53
2022-12-03T22:08:41.439Z,21.40
2022-12-03T22:11:17.818Z,23.02
2022-12-03T22:13:45.002Z,23.67
2022-12-03T22:16:19.597Z,21.73
2022-12-03T22:18:46.625Z,22.77
2022-12-03T22:21:16.049Z,19.27
2022-12-03T22:23:42.692Z,24.02
2022-12-03T22:26:12.787Z,24.40
2022-12-03T22:28:43.098Z,20.55
2022-12-03T22:31:10.133Z,26.37
2022-12-03T22:33:37.126Z,19.88
2022-12-03T22:36:13.391Z,21.30
2022-12-03T22:38:44.922Z,22.83
2022-12-03T22:41:13.313Z,21.95
2022-12-03T22:43:40.674Z,24.20
2022-12-03T22:46:10.452Z,24.08
2022-12-03T22:48:37.130Z,22.55
2022-12-03T22:51:05.056Z,25.10
2022-12-03T22:53:31.535Z,26.52
2022-12-03T22:56:00.222Z,22.10
2022-12-03T22:58:28.637Z,24.10
2022-12-03T23:01:01.270Z,23.65
2022-12-03T23:03:29.754Z,20.10
2022-12-03T23:05:56.591Z,21.23
2022-12-03T23:08:23.282Z,16.67
2022-12-03T23:10:52.117Z,25.20
2022-12-03T23:13:19.619Z,16.63
2022-12-03T23:15:51.826Z,22.08
2022-12-03T23:18:19.917Z,21.67
2022-12-03T23:20:49.092Z,19.17
2022-12-03T23:23:16.788Z,22.58
2022-12-03T23:25:43.317Z,17.75
2022-12-03T23:28:10.611Z,20.30
2022-12-03T23:30:38.819Z,21.50
2022-12-03T23:33:06.406Z,23.20
2022-12-03T23:35:33.526Z,18.85
2022-12-03T23:38:00.155Z,21.92
2022-12-03T23:40:26.695Z,22.40
2022-12-03T23:42:53.197Z,22.80
2022-12-03T23:45:19.690Z,20.47
2022-12-03T23:47:46.210Z,21.40
2022-12-03T23:50:12.993Z,22.30
2022-12-03T23:52:39.546Z,20.85
2022-12-03T23:55:06.519Z,20.02
2022-12-03T23:57:34.469Z,23.13
